LOT2141 EPKK-LIRF
Flight info
| Callsign | LOT2141 |
|---|---|
| Flight time | 1h 35m |
| Altitude | 38000 |
| Route | BABKO L856 VADEX DCT MAREG DCT RADLY DCT BAXON DCT UNUMU DCT ETPOK DCT RITEB |
| Aircraft | B738/M-SDE2E3FGHIRWXY/LB1 |
Departure
| Time | 2026-05-04 06:40 |
|---|---|
| Airport | Kraków John Paul II International Airport (EPKK) |
Arrival
| Time | 2026-05-04 08:16 |
|---|---|
| Airport | Rome–Fiumicino Leonardo da Vinci International Airport (LIRF) |
| Time | Latitude | Longitude | Altitude | Speed | Heading |
|---|---|---|---|---|---|
| 2026-05-04 06:25 | 50.07336 | 19.80205 | 799 ft | 0 kts | 168° |
| 2026-05-04 06:33 | 50.07412 | 19.80144 | 799 ft | 3 kts | 94° |
| 2026-05-04 06:34 | 50.07412 | 19.80133 | 799 ft | 0 kts | 78° |
| 2026-05-04 06:36 | 50.07535 | 19.80410 | 799 ft | 11 kts | 17° |
| 2026-05-04 06:37 | 50.07609 | 19.80414 | 799 ft | 11 kts | 347° |
| 2026-05-04 06:37 | 50.07678 | 19.80390 | 799 ft | 10 kts | 347° |
| 2026-05-04 06:37 | 50.07737 | 19.80370 | 799 ft | 6 kts | 347° |
| 2026-05-04 06:37 | 50.07779 | 19.80355 | 799 ft | 6 kts | 347° |
| 2026-05-04 06:38 | 50.07805 | 19.80346 | 799 ft | 2 kts | 347° |
| 2026-05-04 06:38 | 50.07815 | 19.80343 | 799 ft | 1 kts | 347° |
| 2026-05-04 06:40 | 50.07967 | 19.79892 | 799 ft | 66 kts | 257° |
| 2026-05-04 06:40 | 50.07814 | 19.78800 | 800 ft | 138 kts | 257° |
| 2026-05-04 06:40 | 50.07567 | 19.77096 | 1150 ft | 169 kts | 257° |
| 2026-05-04 06:40 | 50.07306 | 19.75362 | 2186 ft | 165 kts | 257° |
| 2026-05-04 06:41 | 50.07060 | 19.73598 | 3019 ft | 172 kts | 258° |
| 2026-05-04 06:41 | 50.06799 | 19.71638 | 3512 ft | 200 kts | 257° |
| 2026-05-04 06:41 | 50.06488 | 19.69361 | 3862 ft | 231 kts | 257° |
| 2026-05-04 06:41 | 50.05974 | 19.66875 | 4449 ft | 247 kts | 239° |
| 2026-05-04 06:42 | 50.04822 | 19.64981 | 5589 ft | 241 kts | 212° |
| 2026-05-04 06:42 | 50.03238 | 19.64081 | 6460 ft | 251 kts | 186° |
| 2026-05-04 06:42 | 50.01465 | 19.64344 | 7207 ft | 264 kts | 167° |
| 2026-05-04 06:44 | 49.88022 | 19.69141 | 13355 ft | 303 kts | 187° |
| 2026-05-04 06:44 | 49.85975 | 19.68279 | 14185 ft | 307 kts | 202° |
| 2026-05-04 06:44 | 49.84036 | 19.66824 | 14994 ft | 312 kts | 209° |
| 2026-05-04 06:45 | 49.82144 | 19.65123 | 15800 ft | 316 kts | 211° |
| 2026-05-04 06:45 | 49.80238 | 19.63374 | 16578 ft | 321 kts | 211° |
| 2026-05-04 06:45 | 49.78286 | 19.61637 | 17334 ft | 326 kts | 210° |
| 2026-05-04 06:45 | 49.76298 | 19.59901 | 18078 ft | 330 kts | 210° |
| 2026-05-04 06:46 | 49.74280 | 19.58158 | 18804 ft | 335 kts | 210° |
| 2026-05-04 06:46 | 49.72231 | 19.56398 | 19525 ft | 339 kts | 210° |
| 2026-05-04 06:46 | 49.70155 | 19.54620 | 20227 ft | 343 kts | 210° |
| 2026-05-04 06:46 | 49.68052 | 19.52823 | 20909 ft | 347 kts | 210° |
| 2026-05-04 06:48 | 49.54501 | 19.36163 | 25222 ft | 372 kts | 229° |
| 2026-05-04 06:48 | 49.52725 | 19.33242 | 25784 ft | 375 kts | 228° |
| 2026-05-04 06:49 | 49.50929 | 19.30307 | 26318 ft | 379 kts | 228° |
| 2026-05-04 06:50 | 49.37879 | 19.09004 | 29684 ft | 402 kts | 228° |
| 2026-05-04 06:51 | 49.35963 | 19.05922 | 30110 ft | 405 kts | 227° |
| 2026-05-04 06:51 | 49.33980 | 19.02739 | 30510 ft | 409 kts | 227° |
| 2026-05-04 06:51 | 49.32033 | 18.99616 | 30891 ft | 412 kts | 227° |
| 2026-05-04 06:51 | 49.30047 | 18.96432 | 31295 ft | 415 kts | 227° |
| 2026-05-04 06:52 | 49.28020 | 18.93187 | 31689 ft | 417 kts | 228° |
| 2026-05-04 06:52 | 49.26035 | 18.90007 | 32048 ft | 420 kts | 228° |
| 2026-05-04 06:52 | 49.24045 | 18.86718 | 32419 ft | 422 kts | 231° |
| 2026-05-04 06:52 | 49.22166 | 18.83258 | 32786 ft | 424 kts | 233° |
| 2026-05-04 06:53 | 49.20309 | 18.79734 | 33127 ft | 426 kts | 232° |
| 2026-05-04 06:53 | 49.18437 | 18.76209 | 33472 ft | 428 kts | 232° |
| 2026-05-04 06:53 | 49.16545 | 18.72672 | 33788 ft | 431 kts | 232° |
| 2026-05-04 06:53 | 49.14638 | 18.69124 | 34107 ft | 433 kts | 232° |
| 2026-05-04 06:54 | 49.12716 | 18.65560 | 34425 ft | 435 kts | 232° |
| 2026-05-04 06:54 | 49.10785 | 18.61990 | 34737 ft | 437 kts | 232° |
| 2026-05-04 06:54 | 49.08846 | 18.58414 | 35035 ft | 439 kts | 232° |
| 2026-05-04 06:54 | 49.06895 | 18.54821 | 35324 ft | 441 kts | 232° |
| 2026-05-04 06:55 | 49.04934 | 18.51217 | 35621 ft | 442 kts | 232° |
| 2026-05-04 06:55 | 49.02968 | 18.47603 | 35889 ft | 444 kts | 232° |
| 2026-05-04 06:55 | 49.01022 | 18.43949 | 36178 ft | 445 kts | 232° |
| 2026-05-04 06:55 | 48.99072 | 18.40308 | 36555 ft | 443 kts | 232° |
| 2026-05-04 06:56 | 48.97119 | 18.36685 | 36915 ft | 442 kts | 232° |
| 2026-05-04 06:57 | 48.83394 | 18.11538 | 38112 ft | 441 kts | 232° |
| 2026-05-04 06:58 | 48.79477 | 18.04418 | 38112 ft | 439 kts | 232° |
| 2026-05-04 06:58 | 48.75559 | 17.97314 | 38111 ft | 439 kts | 232° |
| 2026-05-04 06:59 | 48.71647 | 17.90242 | 38111 ft | 437 kts | 232° |
| 2026-05-04 06:59 | 48.67736 | 17.83189 | 38112 ft | 438 kts | 232° |
| 2026-05-04 07:01 | 48.52154 | 17.55275 | 38109 ft | 438 kts | 232° |
| 2026-05-04 07:02 | 48.48219 | 17.48272 | 38109 ft | 438 kts | 231° |
| 2026-05-04 07:02 | 48.44278 | 17.41276 | 38108 ft | 437 kts | 231° |
| 2026-05-04 07:03 | 48.40340 | 17.34303 | 38109 ft | 437 kts | 231° |
| 2026-05-04 07:03 | 48.36431 | 17.27311 | 38108 ft | 437 kts | 231° |
| 2026-05-04 07:04 | 48.32484 | 17.20363 | 38110 ft | 436 kts | 231° |
| 2026-05-04 07:04 | 48.28554 | 17.13486 | 38106 ft | 436 kts | 231° |
| 2026-05-04 07:05 | 48.24644 | 17.06664 | 38105 ft | 436 kts | 231° |
| 2026-05-04 07:05 | 48.20674 | 16.99757 | 38102 ft | 436 kts | 230° |
| 2026-05-04 07:06 | 48.13841 | 16.90728 | 38091 ft | 438 kts | 220° |
| 2026-05-04 07:07 | 48.09043 | 16.85117 | 38082 ft | 437 kts | 220° |
| 2026-05-04 07:09 | 47.89843 | 16.62681 | 38067 ft | 439 kts | 220° |
| 2026-05-04 07:09 | 47.85288 | 16.57320 | 38069 ft | 438 kts | 220° |
| 2026-05-04 07:10 | 47.80492 | 16.51720 | 38064 ft | 438 kts | 220° |
| 2026-05-04 07:12 | 47.61302 | 16.29520 | 38076 ft | 438 kts | 220° |
| 2026-05-04 07:12 | 47.56491 | 16.23991 | 38079 ft | 438 kts | 220° |
| 2026-05-04 07:13 | 47.51678 | 16.18473 | 38085 ft | 438 kts | 220° |
| 2026-05-04 07:13 | 47.46860 | 16.12961 | 38090 ft | 438 kts | 220° |
| 2026-05-04 07:14 | 47.34787 | 15.99209 | 38099 ft | 439 kts | 220° |
| 2026-05-04 07:15 | 47.29962 | 15.93736 | 38101 ft | 436 kts | 219° |
| 2026-05-04 07:15 | 47.25151 | 15.88291 | 38104 ft | 436 kts | 219° |
| 2026-05-04 07:16 | 47.20332 | 15.82851 | 38106 ft | 436 kts | 219° |
| 2026-05-04 07:16 | 47.15511 | 15.77420 | 38110 ft | 437 kts | 219° |
| 2026-05-04 07:17 | 47.10684 | 15.71995 | 38110 ft | 437 kts | 219° |
| 2026-05-04 07:17 | 47.05890 | 15.66620 | 38111 ft | 437 kts | 219° |
| 2026-05-04 07:18 | 47.01059 | 15.61216 | 38110 ft | 437 kts | 219° |
| 2026-05-04 07:18 | 46.96224 | 15.55819 | 38111 ft | 437 kts | 219° |
| 2026-05-04 07:19 | 46.91383 | 15.50429 | 38111 ft | 437 kts | 219° |
| 2026-05-04 07:19 | 46.86564 | 15.45022 | 38110 ft | 437 kts | 219° |
| 2026-05-04 07:20 | 46.82539 | 15.40556 | 38109 ft | 437 kts | 219° |
| 2026-05-04 07:20 | 46.77694 | 15.35212 | 38108 ft | 437 kts | 219° |
| 2026-05-04 07:22 | 46.57734 | 15.15103 | 38103 ft | 438 kts | 211° |
| 2026-05-04 07:23 | 46.52386 | 15.10838 | 38105 ft | 438 kts | 211° |
| 2026-05-04 07:23 | 46.47050 | 15.06547 | 38110 ft | 438 kts | 211° |
| 2026-05-04 07:24 | 46.41724 | 15.02255 | 38120 ft | 438 kts | 211° |
| 2026-05-04 07:24 | 46.36401 | 14.97966 | 38126 ft | 438 kts | 211° |
| 2026-05-04 07:26 | 46.15226 | 14.80818 | 38135 ft | 436 kts | 211° |
| 2026-05-04 07:27 | 46.09927 | 14.76567 | 38136 ft | 435 kts | 211° |
| 2026-05-04 07:27 | 46.04632 | 14.72329 | 38137 ft | 435 kts | 211° |
| 2026-05-04 07:28 | 45.99343 | 14.68109 | 38138 ft | 435 kts | 211° |
| 2026-05-04 07:28 | 45.94027 | 14.63873 | 38137 ft | 437 kts | 211° |
| 2026-05-04 07:29 | 45.88714 | 14.59651 | 38139 ft | 436 kts | 211° |
| 2026-05-04 07:29 | 45.83404 | 14.55439 | 38139 ft | 436 kts | 211° |
| 2026-05-04 07:30 | 45.78103 | 14.51245 | 38135 ft | 435 kts | 211° |
| 2026-05-04 07:30 | 45.72791 | 14.47051 | 38134 ft | 435 kts | 211° |
| 2026-05-04 07:31 | 45.67486 | 14.42871 | 38133 ft | 435 kts | 211° |
| 2026-05-04 07:33 | 45.46287 | 14.26262 | 38127 ft | 436 kts | 211° |
| 2026-05-04 07:33 | 45.40960 | 14.22110 | 38132 ft | 436 kts | 211° |
| 2026-05-04 07:34 | 45.35637 | 14.17971 | 38133 ft | 436 kts | 211° |
| 2026-05-04 07:34 | 45.30305 | 14.13833 | 38134 ft | 436 kts | 211° |
| 2026-05-04 07:35 | 45.24970 | 14.09703 | 38135 ft | 437 kts | 211° |
| 2026-05-04 07:35 | 45.19622 | 14.05571 | 38133 ft | 437 kts | 211° |
| 2026-05-04 07:36 | 45.14273 | 14.01447 | 38133 ft | 438 kts | 211° |
| 2026-05-04 07:38 | 44.93002 | 13.85136 | 38141 ft | 435 kts | 211° |
| 2026-05-04 07:38 | 44.87677 | 13.81075 | 38141 ft | 435 kts | 211° |
| 2026-05-04 07:39 | 44.82375 | 13.77038 | 38140 ft | 436 kts | 211° |
| 2026-05-04 07:39 | 44.77042 | 13.72987 | 38138 ft | 436 kts | 211° |
| 2026-05-04 07:40 | 44.71700 | 13.68938 | 38136 ft | 436 kts | 211° |
| 2026-05-04 07:40 | 44.66359 | 13.64867 | 38134 ft | 436 kts | 211° |
| 2026-05-04 07:41 | 44.61011 | 13.60828 | 38133 ft | 436 kts | 211° |
| 2026-05-04 07:41 | 44.55649 | 13.56799 | 38134 ft | 437 kts | 211° |
| 2026-05-04 07:42 | 44.50289 | 13.52781 | 38141 ft | 437 kts | 211° |
| 2026-05-04 07:42 | 44.44925 | 13.48766 | 38141 ft | 437 kts | 211° |
| 2026-05-04 07:43 | 44.39571 | 13.44739 | 38137 ft | 437 kts | 212° |
| 2026-05-04 07:43 | 44.34236 | 13.40688 | 38137 ft | 437 kts | 212° |
| 2026-05-04 07:44 | 44.28899 | 13.36646 | 38136 ft | 436 kts | 212° |
| 2026-05-04 07:44 | 44.23555 | 13.32610 | 38136 ft | 436 kts | 211° |
| 2026-05-04 07:45 | 44.18262 | 13.28619 | 38141 ft | 436 kts | 212° |
| 2026-05-04 07:45 | 44.12933 | 13.24610 | 38140 ft | 435 kts | 211° |
| 2026-05-04 07:46 | 44.07622 | 13.20578 | 38142 ft | 434 kts | 212° |
| 2026-05-04 07:46 | 44.02312 | 13.16566 | 38141 ft | 434 kts | 212° |
| 2026-05-04 07:47 | 43.97006 | 13.12578 | 38145 ft | 434 kts | 212° |
| 2026-05-04 07:49 | 43.75840 | 12.96773 | 37063 ft | 429 kts | 212° |
| 2026-05-04 07:49 | 43.73211 | 12.94819 | 36428 ft | 429 kts | 212° |
| 2026-05-04 07:49 | 43.70577 | 12.92861 | 35777 ft | 430 kts | 212° |
| 2026-05-04 07:50 | 43.67945 | 12.90887 | 35114 ft | 431 kts | 212° |
| 2026-05-04 07:50 | 43.65295 | 12.88915 | 34439 ft | 432 kts | 212° |
| 2026-05-04 07:50 | 43.62642 | 12.86951 | 33753 ft | 433 kts | 212° |
| 2026-05-04 07:50 | 43.59978 | 12.84985 | 33052 ft | 434 kts | 212° |
| 2026-05-04 07:51 | 43.57309 | 12.83018 | 32338 ft | 435 kts | 212° |
| 2026-05-04 07:51 | 43.54633 | 12.81049 | 31621 ft | 436 kts | 211° |
| 2026-05-04 07:51 | 43.51965 | 12.79087 | 31076 ft | 433 kts | 211° |
| 2026-05-04 07:51 | 43.49321 | 12.77144 | 30542 ft | 429 kts | 211° |
| 2026-05-04 07:52 | 43.46696 | 12.75217 | 30015 ft | 426 kts | 211° |
| 2026-05-04 07:52 | 43.44092 | 12.73305 | 29500 ft | 422 kts | 211° |
| 2026-05-04 07:52 | 43.41546 | 12.71426 | 28995 ft | 419 kts | 212° |
| 2026-05-04 07:52 | 43.39041 | 12.69413 | 28486 ft | 415 kts | 214° |
| 2026-05-04 07:53 | 43.36608 | 12.67322 | 27981 ft | 411 kts | 215° |
| 2026-05-04 07:54 | 43.20008 | 12.53249 | 24481 ft | 391 kts | 214° |
| 2026-05-04 07:55 | 43.17696 | 12.51312 | 23986 ft | 388 kts | 214° |
| 2026-05-04 07:55 | 43.15398 | 12.49389 | 23491 ft | 386 kts | 213° |
| 2026-05-04 07:55 | 43.13115 | 12.47478 | 22998 ft | 383 kts | 213° |
| 2026-05-04 07:55 | 43.10857 | 12.45565 | 22508 ft | 381 kts | 213° |
| 2026-05-04 07:56 | 43.08610 | 12.43670 | 22018 ft | 378 kts | 213° |
| 2026-05-04 07:56 | 43.06376 | 12.41795 | 21530 ft | 376 kts | 213° |
| 2026-05-04 07:56 | 43.04157 | 12.39937 | 21044 ft | 373 kts | 213° |
| 2026-05-04 07:56 | 43.01961 | 12.38080 | 20561 ft | 370 kts | 213° |
| 2026-05-04 07:57 | 42.99770 | 12.36241 | 20078 ft | 368 kts | 213° |
| 2026-05-04 07:57 | 42.97594 | 12.34424 | 19599 ft | 366 kts | 212° |
| 2026-05-04 07:57 | 42.95429 | 12.32621 | 19121 ft | 363 kts | 212° |
| 2026-05-04 07:57 | 42.93274 | 12.30834 | 18647 ft | 361 kts | 212° |
| 2026-05-04 07:58 | 42.91132 | 12.29059 | 18176 ft | 358 kts | 212° |
| 2026-05-04 07:58 | 42.89033 | 12.27321 | 17713 ft | 356 kts | 212° |
| 2026-05-04 07:58 | 42.86892 | 12.25550 | 17239 ft | 354 kts | 212° |
| 2026-05-04 07:58 | 42.84820 | 12.23837 | 16779 ft | 352 kts | 212° |
| 2026-05-04 07:59 | 42.82735 | 12.22114 | 16316 ft | 349 kts | 212° |
| 2026-05-04 07:59 | 42.80665 | 12.20404 | 15856 ft | 347 kts | 212° |
| 2026-05-04 07:59 | 42.78579 | 12.18687 | 15396 ft | 345 kts | 211° |
| 2026-05-04 07:59 | 42.76440 | 12.17360 | 15099 ft | 339 kts | 199° |
| 2026-05-04 08:00 | 42.74191 | 12.16682 | 15070 ft | 325 kts | 189° |
| 2026-05-04 08:00 | 42.71987 | 12.16364 | 14995 ft | 313 kts | 184° |
| 2026-05-04 08:00 | 42.69846 | 12.16409 | 14899 ft | 303 kts | 176° |
| 2026-05-04 08:02 | 42.55837 | 12.21712 | 12589 ft | 294 kts | 165° |
| 2026-05-04 08:02 | 42.53864 | 12.22470 | 12259 ft | 293 kts | 165° |
| 2026-05-04 08:02 | 42.51903 | 12.23218 | 11930 ft | 292 kts | 165° |
| 2026-05-04 08:03 | 42.49953 | 12.23960 | 11602 ft | 290 kts | 165° |
| 2026-05-04 08:03 | 42.48010 | 12.24699 | 11274 ft | 289 kts | 165° |
| 2026-05-04 08:03 | 42.46077 | 12.25432 | 10948 ft | 288 kts | 165° |
| 2026-05-04 08:03 | 42.44157 | 12.26160 | 10621 ft | 286 kts | 165° |
| 2026-05-04 08:04 | 42.42243 | 12.26885 | 10302 ft | 284 kts | 165° |
| 2026-05-04 08:04 | 42.40365 | 12.27596 | 10191 ft | 275 kts | 165° |
| 2026-05-04 08:04 | 42.38556 | 12.28280 | 10020 ft | 268 kts | 165° |
| 2026-05-04 08:04 | 42.36766 | 12.28959 | 9721 ft | 267 kts | 165° |
| 2026-05-04 08:05 | 42.34985 | 12.29655 | 9420 ft | 265 kts | 165° |
| 2026-05-04 08:05 | 42.33212 | 12.30324 | 9118 ft | 264 kts | 165° |
| 2026-05-04 08:05 | 42.32020 | 12.30772 | 8915 ft | 263 kts | 165° |
| 2026-05-04 08:05 | 42.30283 | 12.31424 | 8615 ft | 262 kts | 165° |
| 2026-05-04 08:06 | 42.28537 | 12.32081 | 8313 ft | 260 kts | 165° |
| 2026-05-04 08:06 | 42.26795 | 12.32736 | 8008 ft | 259 kts | 165° |
| 2026-05-04 08:06 | 42.25067 | 12.33386 | 7704 ft | 257 kts | 165° |
| 2026-05-04 08:06 | 42.23346 | 12.34033 | 7402 ft | 256 kts | 165° |
| 2026-05-04 08:08 | 42.11588 | 12.37397 | 5208 ft | 250 kts | 206° |
| 2026-05-04 08:08 | 42.10357 | 12.35795 | 4897 ft | 249 kts | 239° |
| 2026-05-04 08:10 | 42.02993 | 12.21461 | 3056 ft | 192 kts | 232° |
| 2026-05-04 08:11 | 42.02149 | 12.20112 | 2977 ft | 186 kts | 221° |
| 2026-05-04 08:11 | 41.99739 | 12.19898 | 2969 ft | 183 kts | 170° |
| 2026-05-04 08:11 | 41.98496 | 12.20328 | 2830 ft | 187 kts | 165° |
| 2026-05-04 08:12 | 41.97245 | 12.20843 | 2584 ft | 188 kts | 163° |
| 2026-05-04 08:12 | 41.96005 | 12.21361 | 2330 ft | 184 kts | 163° |
| 2026-05-04 08:12 | 41.94818 | 12.21860 | 2086 ft | 172 kts | 163° |
| 2026-05-04 08:12 | 41.93716 | 12.22322 | 1876 ft | 160 kts | 163° |
| 2026-05-04 08:13 | 41.92689 | 12.22754 | 1660 ft | 151 kts | 163° |
| 2026-05-04 08:13 | 41.91719 | 12.23161 | 1463 ft | 145 kts | 162° |
| 2026-05-04 08:13 | 41.90761 | 12.23563 | 1277 ft | 143 kts | 161° |
| 2026-05-04 08:13 | 41.89814 | 12.23958 | 1098 ft | 142 kts | 162° |
| 2026-05-04 08:14 | 41.88875 | 12.24330 | 947 ft | 140 kts | 162° |
| 2026-05-04 08:14 | 41.87937 | 12.24727 | 764 ft | 143 kts | 161° |
| 2026-05-04 08:14 | 41.86972 | 12.25144 | 582 ft | 144 kts | 161° |
| 2026-05-04 08:16 | 41.82513 | 12.26811 | 22 ft | 27 kts | 191° |
| 2026-05-04 08:16 | 41.82338 | 12.26778 | 22 ft | 24 kts | 173° |
| 2026-05-04 08:16 | 41.82183 | 12.26836 | 22 ft | 22 kts | 163° |
| 2026-05-04 08:17 | 41.82028 | 12.26902 | 22 ft | 26 kts | 162° |
| 2026-05-04 08:17 | 41.81866 | 12.26972 | 22 ft | 23 kts | 161° |
| 2026-05-04 08:17 | 41.81716 | 12.27033 | 22 ft | 22 kts | 163° |
| 2026-05-04 08:17 | 41.81553 | 12.27102 | 22 ft | 26 kts | 163° |
| 2026-05-04 08:19 | 41.80637 | 12.27151 | 22 ft | 17 kts | 250° |
| 2026-05-04 08:19 | 41.80596 | 12.27003 | 22 ft | 16 kts | 249° |
| 2026-05-04 08:20 | 41.80582 | 12.26955 | 22 ft | 16 kts | 249° |
| 2026-05-04 08:20 | 41.80558 | 12.26867 | 22 ft | 15 kts | 250° |
| 2026-05-04 08:20 | 41.80524 | 12.26744 | 22 ft | 14 kts | 250° |
| 2026-05-04 08:20 | 41.80492 | 12.26629 | 22 ft | 13 kts | 250° |
| 2026-05-04 08:21 | 41.80454 | 12.26491 | 22 ft | 19 kts | 249° |
| 2026-05-04 08:21 | 41.80395 | 12.26367 | 22 ft | 15 kts | 195° |
| 2026-05-04 08:21 | 41.80298 | 12.26392 | 22 ft | 14 kts | 160° |
| 2026-05-04 08:21 | 41.80207 | 12.26399 | 22 ft | 14 kts | 202° |
| 2026-05-04 08:22 | 41.80091 | 12.26328 | 22 ft | 22 kts | 205° |
| 2026-05-04 08:22 | 41.79955 | 12.26245 | 22 ft | 21 kts | 204° |
| 2026-05-04 08:24 | 41.79621 | 12.25960 | 22 ft | 0 kts | 295° |